Time;durP1;ratioP1;P1;durP2;ratioP2;P2;SDS_P1;SDS_P2;PMS_P1;PMS_P2;Temp;Humidity;BMP_temperature;BMP_pressure;BME280_temperature;BME280_humidity;BME280_pressure;Samples;Min_cycle;Max_cycle;Signal;HPM_P1;HPM_P2
2021/06/10 00:01:31;;;;;;;4.00;3.70;;;;;;;;;;5079844;28;20189;-79
2021/06/10 00:03:57;;;;;;;3.30;3.10;;;;;;;;;;5068914;28;20435;-79
2021/06/10 00:06:23;;;;;;;4.37;3.97;;;;;;;;;;5079612;28;20430;-78
2021/06/10 00:08:49;;;;;;;3.70;3.40;;;;;;;;;;5082600;28;20510;-79
2021/06/10 00:11:15;;;;;;;3.50;3.25;;;;;;;;;;5078990;28;20465;-77
2021/06/10 00:13:41;;;;;;;4.03;3.72;;;;;;;;;;5079419;28;20216;-78
2021/06/10 00:16:07;;;;;;;3.80;3.50;;;;;;;;;;5078838;28;20233;-79
2021/06/10 00:18:33;;;;;;;4.40;4.00;;;;;;;;;;5079016;28;20503;-79
2021/06/10 00:20:59;;;;;;;5.20;3.80;;;;;;;;;;5080997;28;20438;-78
2021/06/10 00:23:25;;;;;;;3.78;3.47;;;;;;;;;;5080369;28;20176;-79
2021/06/10 00:25:51;;;;;;;4.00;3.70;;;;;;;;;;5081933;28;20199;-78
2021/06/10 00:28:17;;;;;;;3.87;3.53;;;;;;;;;;5083016;28;20191;-79
2021/06/10 00:30:43;;;;;;;4.10;3.80;;;;;;;;;;5084207;28;20451;-79
2021/06/10 00:33:10;;;;;;;3.00;2.80;;;;;;;;;;5083786;28;20428;-79
2021/06/10 00:35:36;;;;;;;3.95;3.65;;;;;;;;;;5085142;28;20413;-79
2021/06/10 00:38:03;;;;;;;3.20;2.92;;;;;;;;;;5083505;28;20238;-78
2021/06/10 00:40:30;;;;;;;4.45;3.95;;;;;;;;;;5082646;28;20236;-79
2021/06/10 00:42:57;;;;;;;4.30;3.90;;;;;;;;;;5083059;28;20182;-78
2021/06/10 00:45:24;;;;;;;4.20;3.85;;;;;;;;;;5083509;28;20182;-79
2021/06/10 00:47:51;;;;;;;3.70;3.40;;;;;;;;;;5086268;28;20218;-79
2021/06/10 00:50:20;;;;;;;4.43;4.03;;;;;;;;;;5082561;28;20174;-79
2021/06/10 00:52:46;;;;;;;4.13;3.78;;;;;;;;;;5081933;28;20208;-79
2021/06/10 00:55:13;;;;;;;3.53;3.22;;;;;;;;;;5082984;28;20263;-79
2021/06/10 00:57:39;;;;;;;3.70;3.42;;;;;;;;;;5083146;28;20180;-79
2021/06/10 01:00:06;;;;;;;3.30;3.00;;;;;;;;;;5085043;28;20201;-79
2021/06/10 01:02:32;;;;;;;3.88;3.58;;;;;;;;;;5084489;28;20181;-79
2021/06/10 01:04:58;;;;;;;14.70;4.60;;;;;;;;;;5080796;28;20197;-78
2021/06/10 01:07:39;;;;;;;3.83;3.53;;;;;;;;;;5082882;28;20472;-78
2021/06/10 01:10:18;;;;;;;4.07;3.67;;;;;;;;;;5097830;28;20187;-78
2021/06/10 01:12:52;;;;;;;4.15;3.30;;;;;;;;;;5082732;28;20206;-79
2021/06/10 01:15:19;;;;;;;3.80;3.60;;;;;;;;;;5082842;28;20185;-79
2021/06/10 01:17:47;;;;;;;3.35;3.15;;;;;;;;;;5085143;28;20190;-79
2021/06/10 01:20:18;;;;;;;4.30;4.00;;;;;;;;;;5081691;28;20182;-79
2021/06/10 01:22:58;;;;;;;3.28;2.72;;;;;;;;;;5082492;28;20182;-79
2021/06/10 01:25:34;;;;;;;3.30;3.00;;;;;;;;;;5081038;28;20597;-79
2021/06/10 01:28:09;;;;;;;4.20;2.95;;;;;;;;;;5091896;28;20477;-78
2021/06/10 01:30:55;;;;;;;3.45;3.15;;;;;;;;;;5081285;28;20193;-79
2021/06/10 01:33:41;;;;;;;3.63;2.95;;;;;;;;;;5077441;28;20188;-79
2021/06/10 01:36:15;;;;;;;3.40;3.15;;;;;;;;;;5082670;28;20635;-79
2021/06/10 01:38:44;;;;;;;2.72;2.60;;;;;;;;;;5100284;28;20262;-79
2021/06/10 01:41:10;;;;;;;2.72;2.53;;;;;;;;;;5081790;28;20193;-79
2021/06/10 01:43:37;;;;;;;4.97;3.80;;;;;;;;;;5082355;28;20713;-80
2021/06/10 01:46:04;;;;;;;4.45;3.35;;;;;;;;;;5080664;28;20528;-80
2021/06/10 01:48:31;;;;;;;3.20;2.90;;;;;;;;;;5080800;28;20217;-79
2021/06/10 01:50:59;;;;;;;3.90;3.60;;;;;;;;;;5082519;28;20685;-79
2021/06/10 01:53:26;;;;;;;3.08;2.88;;;;;;;;;;5084647;28;20184;-80
2021/06/10 01:55:54;;;;;;;3.78;3.05;;;;;;;;;;5081059;28;20273;-79
2021/06/10 01:58:20;;;;;;;3.00;2.80;;;;;;;;;;5080863;28;20245;-79
2021/06/10 02:00:47;;;;;;;3.47;3.20;;;;;;;;;;5080770;28;20236;-78
2021/06/10 02:03:13;;;;;;;3.67;3.38;;;;;;;;;;5080609;28;20216;-79
2021/06/10 02:05:40;;;;;;;3.63;3.33;;;;;;;;;;5094393;28;20164;-79
2021/06/10 02:08:09;;;;;;;2.72;2.53;;;;;;;;;;5081563;28;20175;-80
2021/06/10 02:10:36;;;;;;;3.63;3.25;;;;;;;;;;5080856;28;20254;-79
2021/06/10 02:13:02;;;;;;;3.10;2.90;;;;;;;;;;5081270;28;20195;-79
2021/06/10 02:15:28;;;;;;;5.55;2.70;;;;;;;;;;5082424;28;20212;-80
2021/06/10 02:17:54;;;;;;;3.50;2.65;;;;;;;;;;5084159;28;20188;-79
2021/06/10 02:20:21;;;;;;;3.60;3.30;;;;;;;;;;5091762;28;20172;-79
2021/06/10 02:22:48;;;;;;;3.95;3.10;;;;;;;;;;5080911;28;20193;-79
2021/06/10 02:25:14;;;;;;;3.63;3.42;;;;;;;;;;5081264;28;20197;-79
2021/06/10 02:27:40;;;;;;;3.38;3.08;;;;;;;;;;5080701;28;20185;-79
2021/06/10 02:30:07;;;;;;;3.00;2.70;;;;;;;;;;5083190;28;20188;-79
2021/06/10 02:32:33;;;;;;;2.83;2.63;;;;;;;;;;5098038;28;20202;-79
2021/06/10 02:35:01;;;;;;;3.97;2.65;;;;;;;;;;5079817;28;20599;-79
2021/06/10 02:37:29;;;;;;;2.97;2.78;;;;;;;;;;5081149;28;20230;-78
2021/06/10 02:39:56;;;;;;;3.22;2.83;;;;;;;;;;5080601;28;20177;-79
2021/06/10 02:42:22;;;;;;;3.10;2.80;;;;;;;;;;5078906;28;20250;-79
2021/06/10 02:44:50;;;;;;;3.10;2.90;;;;;;;;;;5084924;28;20172;-79
2021/06/10 02:47:17;;;;;;;2.85;2.53;;;;;;;;;;5078272;28;20220;-79
2021/06/10 02:49:45;;;;;;;2.75;2.53;;;;;;;;;;5079971;28;20195;-80
2021/06/10 02:52:11;;;;;;;2.40;2.20;;;;;;;;;;5081634;28;20200;-79
2021/06/10 02:54:37;;;;;;;2.40;2.10;;;;;;;;;;5080554;28;20265;-79
2021/06/10 02:57:04;;;;;;;3.23;2.60;;;;;;;;;;5081115;28;20184;-79
2021/06/10 02:59:31;;;;;;;3.17;2.35;;;;;;;;;;5081649;28;20446;-79
2021/06/10 03:01:57;;;;;;;2.22;2.08;;;;;;;;;;5079951;28;20203;-81
2021/06/10 03:04:23;;;;;;;2.47;2.28;;;;;;;;;;5079403;28;20184;-79
2021/06/10 03:06:49;;;;;;;4.75;2.90;;;;;;;;;;5081475;28;20180;-79
2021/06/10 03:09:18;;;;;;;2.50;2.30;;;;;;;;;;5081804;28;20184;-78
2021/06/10 03:11:44;;;;;;;2.95;2.35;;;;;;;;;;5083448;28;20713;-80
2021/06/10 03:14:11;;;;;;;3.22;2.92;;;;;;;;;;5076492;28;20722;-80
2021/06/10 03:16:37;;;;;;;3.15;2.88;;;;;;;;;;5087992;28;20176;-79
2021/06/10 03:19:04;;;;;;;2.72;2.53;;;;;;;;;;5079101;28;20581;-79
2021/06/10 03:21:30;;;;;;;2.03;1.92;;;;;;;;;;5081178;28;20196;-79
2021/06/10 03:23:56;;;;;;;2.10;1.90;;;;;;;;;;5083337;28;20179;-79
2021/06/10 03:26:23;;;;;;;2.28;2.17;;;;;;;;;;5081070;28;20202;-79
2021/06/10 03:28:49;;;;;;;7.78;2.70;;;;;;;;;;5078698;28;20593;-79
2021/06/10 03:31:15;;;;;;;2.28;2.08;;;;;;;;;;5077947;28;20196;-78
2021/06/10 03:33:41;;;;;;;2.17;2.07;;;;;;;;;;5080269;28;20634;-79
2021/06/10 03:36:09;;;;;;;2.10;2.00;;;;;;;;;;5082556;28;20420;-78
2021/06/10 03:38:35;;;;;;;2.05;1.92;;;;;;;;;;5082343;28;20172;-79
2021/06/10 03:41:02;;;;;;;2.72;2.38;;;;;;;;;;5077732;28;20252;-78
2021/06/10 03:43:28;;;;;;;2.20;2.00;;;;;;;;;;5079687;28;20180;-78
2021/06/10 03:45:54;;;;;;;3.08;2.15;;;;;;;;;;5079418;28;20180;-79
2021/06/10 03:48:20;;;;;;;2.80;2.60;;;;;;;;;;5080543;28;20180;-79
2021/06/10 03:50:46;;;;;;;3.78;2.30;;;;;;;;;;5083651;28;20210;-79
2021/06/10 03:53:12;;;;;;;2.50;2.30;;;;;;;;;;5079901;28;20195;-79
2021/06/10 03:55:40;;;;;;;3.60;2.47;;;;;;;;;;5078089;28;20180;-79
2021/06/10 03:58:06;;;;;;;2.90;2.20;;;;;;;;;;5078045;28;20782;-79
2021/06/10 04:00:32;;;;;;;2.33;2.13;;;;;;;;;;5082968;28;20535;-79
2021/06/10 04:03:00;;;;;;;2.30;1.98;;;;;;;;;;5084686;28;20179;-79
2021/06/10 04:05:28;;;;;;;2.60;2.35;;;;;;;;;;5085319;28;20584;-79
2021/06/10 04:07:55;;;;;;;2.38;2.17;;;;;;;;;;5084299;28;20199;-78
2021/06/10 04:10:21;;;;;;;3.35;1.98;;;;;;;;;;5084739;28;20184;-78
2021/06/10 04:12:47;;;;;;;2.33;2.13;;;;;;;;;;5082913;28;20234;-78
2021/06/10 04:15:13;;;;;;;3.10;2.80;;;;;;;;;;5074366;28;20177;-78
2021/06/10 04:17:39;;;;;;;1.98;1.70;;;;;;;;;;5086233;28;20176;-79
2021/06/10 04:20:06;;;;;;;2.50;2.30;;;;;;;;;;5082902;28;20177;-79
2021/06/10 04:22:32;;;;;;;2.95;2.60;;;;;;;;;;5083110;28;20450;-78
2021/06/10 04:24:58;;;;;;;3.20;2.90;;;;;;;;;;5082934;28;20604;-78
2021/06/10 04:27:24;;;;;;;2.57;2.37;;;;;;;;;;5081565;28;20176;-78
2021/06/10 04:29:50;;;;;;;2.60;2.40;;;;;;;;;;5086884;28;20430;-78
2021/06/10 04:32:16;;;;;;;2.23;2.13;;;;;;;;;;5084516;28;20474;-79
2021/06/10 04:34:42;;;;;;;2.90;2.40;;;;;;;;;;5083395;28;20909;-78
2021/06/10 04:37:08;;;;;;;3.67;2.40;;;;;;;;;;5083161;28;20543;-78
2021/06/10 04:39:34;;;;;;;2.57;2.37;;;;;;;;;;5084844;28;20454;-78
2021/06/10 04:42:00;;;;;;;3.60;2.50;;;;;;;;;;5084710;28;20422;-78
2021/06/10 04:44:26;;;;;;;2.40;2.20;;;;;;;;;;5084763;28;20901;-79
2021/06/10 04:46:52;;;;;;;8.02;2.75;;;;;;;;;;5081601;28;20796;-78
2021/06/10 04:49:18;;;;;;;2.03;1.92;;;;;;;;;;5081915;28;20172;-78
2021/06/10 04:51:44;;;;;;;3.95;2.63;;;;;;;;;;5082638;28;20196;-78
2021/06/10 04:54:10;;;;;;;4.50;2.07;;;;;;;;;;5083490;28;20182;-78
2021/06/10 04:56:36;;;;;;;2.43;2.23;;;;;;;;;;5083919;28;20931;-78
2021/06/10 04:59:02;;;;;;;3.70;3.00;;;;;;;;;;5082507;28;20445;-78
2021/06/10 05:01:28;;;;;;;2.10;2.00;;;;;;;;;;5081342;28;20468;-78
2021/06/10 05:03:54;;;;;;;4.33;2.50;;;;;;;;;;5084525;28;20188;-78
2021/06/10 05:06:20;;;;;;;2.27;2.03;;;;;;;;;;5077686;28;20453;-78
2021/06/10 05:08:46;;;;;;;2.20;2.00;;;;;;;;;;5102092;28;20422;-78
2021/06/10 05:11:12;;;;;;;2.20;2.10;;;;;;;;;;5081812;28;20283;-78
2021/06/10 05:13:38;;;;;;;3.25;2.30;;;;;;;;;;5084156;28;20483;-79
2021/06/10 05:16:04;;;;;;;2.05;1.85;;;;;;;;;;5081757;28;20791;-79
2021/06/10 05:18:30;;;;;;;3.25;2.15;;;;;;;;;;5082658;28;20546;-80
2021/06/10 05:20:56;;;;;;;2.50;2.30;;;;;;;;;;5083937;28;20251;-79
2021/06/10 05:23:22;;;;;;;4.50;2.60;;;;;;;;;;5082903;28;20439;-79
2021/06/10 05:25:48;;;;;;;3.95;2.30;;;;;;;;;;5080186;28;20427;-79
2021/06/10 05:28:14;;;;;;;2.38;2.20;;;;;;;;;;5082745;28;20177;-79
2021/06/10 05:30:40;;;;;;;3.05;2.85;;;;;;;;;;5081957;28;20311;-79
2021/06/10 05:33:06;;;;;;;2.40;2.03;;;;;;;;;;5084311;28;20231;-79
2021/06/10 05:35:32;;;;;;;2.90;2.20;;;;;;;;;;5084489;28;20626;-78
2021/06/10 05:37:59;;;;;;;2.72;2.50;;;;;;;;;;5082428;28;20426;-79
2021/06/10 05:40:25;;;;;;;2.35;2.15;;;;;;;;;;5081140;28;20181;-80
2021/06/10 05:42:51;;;;;;;2.25;1.77;;;;;;;;;;5083398;28;20189;-80
2021/06/10 05:45:17;;;;;;;3.72;2.15;;;;;;;;;;5083352;28;20173;-79
2021/06/10 05:47:43;;;;;;;2.60;2.20;;;;;;;;;;5084974;28;20224;-79
2021/06/10 05:50:09;;;;;;;1.85;1.75;;;;;;;;;;5082527;28;20197;-79
2021/06/10 05:52:35;;;;;;;2.40;2.20;;;;;;;;;;5079952;28;20328;-79
2021/06/10 05:55:01;;;;;;;3.60;2.40;;;;;;;;;;5081536;28;20284;-79
2021/06/10 05:57:27;;;;;;;4.15;2.00;;;;;;;;;;5082650;28;20180;-79
2021/06/10 05:59:53;;;;;;;2.90;2.40;;;;;;;;;;5083929;28;20188;-78
2021/06/10 06:02:19;;;;;;;3.78;2.92;;;;;;;;;;5081808;28;20555;-78
2021/06/10 06:04:45;;;;;;;2.40;2.20;;;;;;;;;;5080674;28;20191;-79
2021/06/10 06:07:12;;;;;;;2.63;2.43;;;;;;;;;;5078133;28;20463;-79
2021/06/10 06:09:38;;;;;;;2.30;2.10;;;;;;;;;;5078658;28;20496;-79
2021/06/10 06:12:11;;;;;;;5.63;3.20;;;;;;;;;;5080966;28;20245;-78
2021/06/10 06:14:38;;;;;;;2.72;1.95;;;;;;;;;;5082146;28;20892;-79
2021/06/10 06:17:05;;;;;;;2.50;2.30;;;;;;;;;;5082454;28;20181;-79
2021/06/10 06:19:32;;;;;;;2.40;2.13;;;;;;;;;;5082276;28;20671;-80
2021/06/10 06:21:58;;;;;;;4.28;2.35;;;;;;;;;;5081468;28;20186;-80
2021/06/10 06:24:25;;;;;;;2.97;2.65;;;;;;;;;;5074216;28;20189;-78
2021/06/10 06:26:51;;;;;;;2.85;2.60;;;;;;;;;;5080937;28;20257;-78
2021/06/10 06:29:17;;;;;;;4.70;2.22;;;;;;;;;;5079486;28;20659;-77
2021/06/10 06:31:43;;;;;;;3.20;2.37;;;;;;;;;;5077807;28;20235;-77
2021/06/10 06:34:09;;;;;;;2.47;2.27;;;;;;;;;;5079478;28;20432;-77
2021/06/10 06:36:35;;;;;;;2.60;2.30;;;;;;;;;;5078083;28;20475;-77
2021/06/10 06:39:01;;;;;;;2.55;2.35;;;;;;;;;;5082303;28;20502;-77
2021/06/10 06:41:28;;;;;;;2.93;2.73;;;;;;;;;;5075337;28;20690;-77
2021/06/10 06:43:54;;;;;;;2.65;2.45;;;;;;;;;;5077842;28;20518;-76
2021/06/10 06:46:20;;;;;;;4.70;2.43;;;;;;;;;;5073570;28;20264;-76
2021/06/10 06:48:46;;;;;;;3.38;2.08;;;;;;;;;;5077443;28;20488;-77
2021/06/10 06:51:12;;;;;;;4.20;2.50;;;;;;;;;;5080642;28;20689;-77
2021/06/10 06:53:38;;;;;;;2.97;2.50;;;;;;;;;;5086751;28;20659;-76
2021/06/10 06:56:04;;;;;;;2.80;2.60;;;;;;;;;;5088073;28;20183;-77
2021/06/10 06:58:31;;;;;;;5.70;2.25;;;;;;;;;;5081749;28;20174;-77
2021/06/10 07:00:57;;;;;;;3.97;2.03;;;;;;;;;;5081614;28;20188;-76
2021/06/10 07:03:23;;;;;;;2.58;2.38;;;;;;;;;;5079687;28;20192;-76
2021/06/10 07:05:49;;;;;;;3.08;2.70;;;;;;;;;;5084259;28;20238;-76
2021/06/10 07:08:15;;;;;;;2.95;2.45;;;;;;;;;;5078490;28;20203;-77
2021/06/10 07:10:42;;;;;;;2.40;2.20;;;;;;;;;;5073462;28;20185;-75
2021/06/10 07:13:08;;;;;;;3.35;2.05;;;;;;;;;;5078238;28;20694;-76
2021/06/10 07:15:36;;;;;;;3.08;2.40;;;;;;;;;;5077810;28;20188;-77
2021/06/10 07:18:02;;;;;;;1.70;1.60;;;;;;;;;;5081387;28;20174;-76
2021/06/10 07:20:28;;;;;;;3.83;2.50;;;;;;;;;;5094234;28;20180;-76
2021/06/10 07:22:54;;;;;;;4.20;2.33;;;;;;;;;;5080123;28;20444;-76
2021/06/10 07:25:20;;;;;;;5.15;2.38;;;;;;;;;;5079145;28;20439;-76
2021/06/10 07:27:47;;;;;;;4.95;2.60;;;;;;;;;;5081294;28;20195;-76
2021/06/10 07:30:13;;;;;;;5.28;2.20;;;;;;;;;;5081744;28;20200;-77
2021/06/10 07:32:39;;;;;;;5.32;2.85;;;;;;;;;;5081703;28;20255;-77
2021/06/10 07:35:06;;;;;;;4.10;2.35;;;;;;;;;;5079810;28;20227;-77
2021/06/10 07:37:32;;;;;;;3.72;2.45;;;;;;;;;;5078767;28;20207;-77
2021/06/10 07:39:58;;;;;;;2.73;2.50;;;;;;;;;;5078499;28;20172;-77
2021/06/10 07:42:24;;;;;;;2.50;2.30;;;;;;;;;;5079458;28;20440;-76
2021/06/10 07:44:50;;;;;;;5.23;2.43;;;;;;;;;;5082225;28;20434;-76
2021/06/10 07:47:16;;;;;;;4.50;2.80;;;;;;;;;;5079852;28;20472;-76
2021/06/10 07:49:42;;;;;;;6.63;2.97;;;;;;;;;;5078105;28;20208;-77
2021/06/10 07:52:08;;;;;;;2.53;2.30;;;;;;;;;;5073249;28;20537;-76
2021/06/10 07:54:34;;;;;;;4.75;2.10;;;;;;;;;;5082135;28;20273;-76
2021/06/10 07:57:00;;;;;;;2.17;1.98;;;;;;;;;;5080408;28;20181;-77
2021/06/10 07:59:26;;;;;;;3.88;2.45;;;;;;;;;;5080932;28;20215;-76
2021/06/10 08:01:53;;;;;;;1.85;1.75;;;;;;;;;;5075262;28;20197;-76
2021/06/10 08:04:19;;;;;;;5.35;2.40;;;;;;;;;;5080663;28;20662;-76
2021/06/10 08:06:45;;;;;;;3.50;2.10;;;;;;;;;;5080522;28;20190;-77
2021/06/10 08:09:11;;;;;;;3.03;2.03;;;;;;;;;;5078374;28;20201;-77
2021/06/10 08:11:38;;;;;;;2.97;2.28;;;;;;;;;;5092182;28;20687;-77
2021/06/10 08:14:05;;;;;;;3.47;2.03;;;;;;;;;;5078117;28;20186;-77
2021/06/10 08:16:31;;;;;;;3.97;2.10;;;;;;;;;;5079495;28;20185;-76
2021/06/10 08:18:57;;;;;;;1.90;1.65;;;;;;;;;;5078867;28;20179;-76
2021/06/10 08:21:23;;;;;;;2.63;2.38;;;;;;;;;;5076747;28;20183;-77
2021/06/10 08:23:49;;;;;;;1.40;1.30;;;;;;;;;;5076974;28;20186;-77
2021/06/10 08:26:15;;;;;;;2.65;1.40;;;;;;;;;;5079884;28;20276;-77
2021/06/10 08:28:41;;;;;;;2.00;1.80;;;;;;;;;;5079755;28;20238;-76
2021/06/10 08:31:09;;;;;;;1.67;1.40;;;;;;;;;;5078209;28;20449;-77
2021/06/10 08:33:35;;;;;;;3.78;1.50;;;;;;;;;;5078331;28;20443;-77
2021/06/10 08:36:02;;;;;;;1.65;1.40;;;;;;;;;;5080691;28;20549;-77
2021/06/10 08:38:28;;;;;;;1.75;1.63;;;;;;;;;;5080916;28;20172;-76
2021/06/10 08:40:54;;;;;;;3.00;1.60;;;;;;;;;;5075082;28;20272;-76
2021/06/10 08:43:20;;;;;;;4.00;1.60;;;;;;;;;;5076203;28;20441;-77
2021/06/10 08:45:47;;;;;;;1.50;1.35;;;;;;;;;;5079679;28;20184;-77
2021/06/10 08:48:14;;;;;;;1.95;1.48;;;;;;;;;;5084628;28;20180;-77
2021/06/10 08:50:40;;;;;;;1.73;1.63;;;;;;;;;;5086963;28;20203;-77
2021/06/10 08:53:08;;;;;;;3.00;1.70;;;;;;;;;;5083064;28;20476;-76
2021/06/10 08:55:35;;;;;;;3.10;1.87;;;;;;;;;;5081495;28;20512;-77
2021/06/10 08:58:01;;;;;;;3.27;1.67;;;;;;;;;;5082870;28;20437;-76
2021/06/10 09:00:32;;;;;;;1.52;1.40;;;;;;;;;;5082368;28;20419;-76
2021/06/10 09:02:59;;;;;;;2.08;1.63;;;;;;;;;;5084855;28;20202;-76
2021/06/10 09:05:26;;;;;;;4.05;1.60;;;;;;;;;;5085646;28;20168;-77
2021/06/10 09:07:53;;;;;;;1.60;1.50;;;;;;;;;;5082889;28;20199;-76
2021/06/10 09:10:24;;;;;;;3.55;1.63;;;;;;;;;;5081792;28;20218;-75
2021/06/10 09:12:55;;;;;;;2.97;1.90;;;;;;;;;;5081824;28;20275;-76
2021/06/10 09:15:22;;;;;;;1.35;1.25;;;;;;;;;;5077924;28;20165;-76
2021/06/10 09:17:48;;;;;;;1.97;1.50;;;;;;;;;;5086101;28;20168;-77
2021/06/10 09:20:24;;;;;;;4.63;1.70;;;;;;;;;;5081124;28;20426;-76
2021/06/10 09:23:10;;;;;;;4.03;1.63;;;;;;;;;;5080664;28;20443;-76
2021/06/10 09:25:36;;;;;;;2.07;1.83;;;;;;;;;;5083972;28;20184;-76
2021/06/10 09:28:05;;;;;;;2.40;1.80;;;;;;;;;;5082324;28;20467;-77
2021/06/10 09:30:31;;;;;;;3.67;1.70;;;;;;;;;;5082206;28;20438;-77
2021/06/10 09:32:57;;;;;;;4.17;1.90;;;;;;;;;;5084046;28;20916;-77
2021/06/10 09:35:30;;;;;;;3.10;1.60;;;;;;;;;;5083617;28;20485;-77
2021/06/10 09:37:58;;;;;;;2.70;1.83;;;;;;;;;;5081046;28;20434;-76
2021/06/10 09:40:24;;;;;;;6.40;2.47;;;;;;;;;;5082283;28;20488;-77
2021/06/10 09:42:50;;;;;;;2.53;1.80;;;;;;;;;;5082079;28;20435;-76
2021/06/10 09:45:19;;;;;;;4.27;1.67;;;;;;;;;;5083134;28;20427;-76
2021/06/10 09:47:47;;;;;;;2.80;1.53;;;;;;;;;;5084928;28;20465;-76
2021/06/10 09:50:14;;;;;;;1.90;1.80;;;;;;;;;;5080481;28;20441;-76
2021/06/10 09:52:48;;;;;;;1.60;1.50;;;;;;;;;;5080164;28;20455;-77
2021/06/10 09:55:31;;;;;;;2.30;1.67;;;;;;;;;;5083530;28;20427;-77
2021/06/10 09:58:17;;;;;;;1.83;1.70;;;;;;;;;;5081314;28;20401;-77
2021/06/10 10:00:47;;;;;;;3.53;1.70;;;;;;;;;;5082103;28;20439;-77
2021/06/10 10:03:26;;;;;;;4.40;2.00;;;;;;;;;;5081154;28;20479;-76
2021/06/10 10:05:53;;;;;;;1.83;1.50;;;;;;;;;;5084357;28;20509;-76
2021/06/10 10:08:19;;;;;;;2.77;2.57;;;;;;;;;;5083651;28;20406;-76
2021/06/10 10:10:45;;;;;;;2.03;1.70;;;;;;;;;;5080059;28;20470;-77
2021/06/10 10:13:15;;;;;;;3.30;2.03;;;;;;;;;;5079550;28;20648;-77
2021/06/10 10:15:41;;;;;;;2.03;1.83;;;;;;;;;;5082604;28;20536;-76
2021/06/10 10:18:07;;;;;;;1.67;1.57;;;;;;;;;;5083637;28;20415;-76
2021/06/10 10:20:35;;;;;;;2.63;2.43;;;;;;;;;;5099049;28;20414;-76
2021/06/10 10:23:01;;;;;;;1.97;1.77;;;;;;;;;;5080981;28;20576;-77
2021/06/10 10:25:27;;;;;;;1.93;1.83;;;;;;;;;;5079841;28;20437;-77
2021/06/10 10:27:53;;;;;;;3.43;2.30;;;;;;;;;;5081289;28;20510;-76
2021/06/10 10:30:21;;;;;;;4.10;1.97;;;;;;;;;;5081574;28;20480;-77
2021/06/10 10:32:47;;;;;;;1.80;1.70;;;;;;;;;;5084667;28;20949;-73
2021/06/10 10:35:22;;;;;;;2.23;1.73;;;;;;;;;;5079607;28;20423;-74
2021/06/10 10:37:52;;;;;;;2.80;2.00;;;;;;;;;;5080006;28;20447;-74
2021/06/10 10:40:27;;;;;;;1.97;1.60;;;;;;;;;;5079800;28;20431;-75
2021/06/10 10:42:56;;;;;;;2.40;1.80;;;;;;;;;;5081192;28;20464;-73
2021/06/10 10:45:24;;;;;;;3.03;1.97;;;;;;;;;;5076905;28;20410;-74
2021/06/10 10:48:02;;;;;;;2.10;1.90;;;;;;;;;;5081055;28;20550;-74
2021/06/10 10:50:33;;;;;;;4.13;1.90;;;;;;;;;;5084357;28;20424;-74
2021/06/10 10:52:59;;;;;;;2.60;2.40;;;;;;;;;;5077878;28;20444;-74
2021/06/10 10:55:30;;;;;;;2.60;1.97;;;;;;;;;;5080172;28;20481;-74
2021/06/10 10:57:57;;;;;;;2.90;2.57;;;;;;;;;;5078856;28;20455;-74
2021/06/10 11:00:43;;;;;;;3.00;2.20;;;;;;;;;;5080282;28;20408;-75
2021/06/10 11:03:18;;;;;;;2.00;1.90;;;;;;;;;;5096777;28;20399;-74
2021/06/10 11:05:45;;;;;;;2.63;2.10;;;;;;;;;;5094073;28;20393;-74
2021/06/10 11:08:11;;;;;;;2.90;2.43;;;;;;;;;;5079711;28;20406;-74
2021/06/10 11:10:39;;;;;;;3.87;2.00;;;;;;;;;;5079237;28;20445;-75
2021/06/10 11:13:15;;;;;;;3.40;2.70;;;;;;;;;;5079462;28;20467;-75
2021/06/10 11:15:44;;;;;;;3.20;2.70;;;;;;;;;;5079896;28;20416;-74
2021/06/10 11:18:10;;;;;;;2.97;2.77;;;;;;;;;;5082390;28;20404;-74
2021/06/10 11:20:36;;;;;;;4.03;2.63;;;;;;;;;;5092575;28;20392;-75
2021/06/10 11:23:13;;;;;;;2.33;2.13;;;;;;;;;;5080020;28;20408;-73
2021/06/10 11:25:43;;;;;;;3.43;3.13;;;;;;;;;;5079953;28;20416;-74
2021/06/10 11:28:10;;;;;;;4.23;2.23;;;;;;;;;;5078429;28;20417;-74
2021/06/10 11:30:38;;;;;;;4.10;2.90;;;;;;;;;;5080272;28;20438;-73
2021/06/10 11:33:10;;;;;;;2.40;2.20;;;;;;;;;;5082037;28;20441;-73
2021/06/10 11:35:41;;;;;;;2.70;2.07;;;;;;;;;;5081989;28;20959;-74
2021/06/10 11:38:13;;;;;;;2.60;2.40;;;;;;;;;;5079082;28;20508;-74
2021/06/10 11:40:40;;;;;;;3.17;2.97;;;;;;;;;;5078882;28;20437;-73
2021/06/10 11:43:07;;;;;;;2.67;2.47;;;;;;;;;;5079716;28;20434;-74
2021/06/10 11:45:33;;;;;;;2.20;2.10;;;;;;;;;;5079820;28;20424;-73
2021/06/10 11:48:00;;;;;;;9.97;2.47;;;;;;;;;;5081099;28;20490;-75
2021/06/10 11:50:37;;;;;;;6.33;2.63;;;;;;;;;;5081090;28;20425;-75
2021/06/10 11:53:04;;;;;;;3.23;2.30;;;;;;;;;;5092886;28;20477;-75
2021/06/10 11:55:31;;;;;;;2.27;2.17;;;;;;;;;;5077558;28;20434;-74
2021/06/10 11:57:59;;;;;;;2.40;2.30;;;;;;;;;;5077051;28;20446;-75
2021/06/10 12:00:26;;;;;;;3.60;2.80;;;;;;;;;;5066973;28;20529;-74
2021/06/10 12:02:57;;;;;;;3.70;2.27;;;;;;;;;;5081748;28;20428;-75
2021/06/10 12:05:23;;;;;;;5.20;2.70;;;;;;;;;;5079356;28;20502;-75
2021/06/10 12:07:49;;;;;;;4.60;2.90;;;;;;;;;;5079675;28;20913;-75
2021/06/10 12:10:18;;;;;;;2.80;2.60;;;;;;;;;;5079155;28;20423;-76
2021/06/10 12:12:45;;;;;;;5.33;2.50;;;;;;;;;;5080276;28;20499;-75
2021/06/10 12:15:25;;;;;;;3.63;2.50;;;;;;;;;;5081227;28;20412;-76
2021/06/10 12:17:54;;;;;;;2.33;2.23;;;;;;;;;;5083617;28;20416;-76
2021/06/10 12:20:22;;;;;;;3.00;2.80;;;;;;;;;;5081739;28;20769;-74
2021/06/10 12:22:48;;;;;;;3.20;2.97;;;;;;;;;;5082972;28;20430;-75
2021/06/10 12:25:15;;;;;;;3.20;2.40;;;;;;;;;;5081655;28;20965;-75
2021/06/10 12:27:41;;;;;;;4.50;2.37;;;;;;;;;;5075348;28;20439;-75
2021/06/10 12:30:27;;;;;;;2.80;2.60;;;;;;;;;;5081880;28;20414;-75
2021/06/10 12:33:09;;;;;;;4.20;2.57;;;;;;;;;;5080105;28;20462;-75
2021/06/10 12:35:36;;;;;;;3.27;2.50;;;;;;;;;;5085046;28;20442;-75
2021/06/10 12:38:03;;;;;;;3.50;3.30;;;;;;;;;;5077380;28;20437;-74
2021/06/10 12:40:36;;;;;;;2.37;2.17;;;;;;;;;;5084169;28;20434;-75
2021/06/10 12:43:06;;;;;;;2.60;2.50;;;;;;;;;;5079666;28;20442;-74
2021/06/10 12:45:32;;;;;;;5.33;2.73;;;;;;;;;;5080260;28;20451;-75
2021/06/10 12:47:58;;;;;;;2.83;2.60;;;;;;;;;;5100229;28;20462;-76
2021/06/10 12:50:24;;;;;;;2.30;2.10;;;;;;;;;;5083119;28;20489;-75
2021/06/10 12:52:50;;;;;;;2.60;2.50;;;;;;;;;;5078363;28;20466;-75
2021/06/10 12:55:25;;;;;;;2.60;2.50;;;;;;;;;;5078980;28;20570;-76
2021/06/10 12:57:55;;;;;;;3.10;2.90;;;;;;;;;;5079935;28;20438;-78
2021/06/10 13:00:29;;;;;;;3.40;3.20;;;;;;;;;;5100109;28;20868;-79
2021/06/10 13:03:02;;;;;;;2.90;2.80;;;;;;;;;;5081671;28;20426;-77
2021/06/10 13:05:28;;;;;;;2.63;2.53;;;;;;;;;;5082459;28;20409;-75
2021/06/10 13:07:55;;;;;;;3.47;3.17;;;;;;;;;;5080764;28;20465;-76
2021/06/10 13:10:35;;;;;;;2.80;2.70;;;;;;;;;;5081125;28;20810;-75
2021/06/10 13:13:01;;;;;;;2.70;2.53;;;;;;;;;;5082207;28;20566;-75
2021/06/10 13:15:31;;;;;;;2.50;2.30;;;;;;;;;;5083652;28;20452;-75
2021/06/10 13:17:58;;;;;;;3.00;2.30;;;;;;;;;;5085536;28;20422;-76
2021/06/10 13:20:42;;;;;;;2.40;2.30;;;;;;;;;;5085977;28;20494;-76
2021/06/10 13:23:12;;;;;;;2.40;2.10;;;;;;;;;;5082611;28;20448;-75
2021/06/10 13:25:38;;;;;;;2.33;2.23;;;;;;;;;;5076528;28;20439;-75
2021/06/10 13:28:26;;;;;;;3.17;2.87;;;;;;;;;;5082902;28;20875;-74
2021/06/10 13:31:09;;;;;;;2.90;2.70;;;;;;;;;;5082536;28;20945;-75
2021/06/10 13:33:35;;;;;;;3.10;2.90;;;;;;;;;;5094227;28;20478;-76
2021/06/10 13:36:05;;;;;;;3.07;2.77;;;;;;;;;;5083514;28;20961;-75
2021/06/10 13:38:31;;;;;;;2.40;2.30;;;;;;;;;;5083118;28;20422;-76
2021/06/10 13:40:57;;;;;;;3.00;2.80;;;;;;;;;;5081863;28;20430;-75
2021/06/10 13:43:31;;;;;;;3.70;2.50;;;;;;;;;;5080078;28;20476;-75
2021/06/10 13:45:57;;;;;;;2.70;2.50;;;;;;;;;;5081073;28;20469;-75
2021/06/10 13:48:23;;;;;;;3.57;2.57;;;;;;;;;;5082148;28;20444;-74
2021/06/10 13:50:49;;;;;;;2.93;2.73;;;;;;;;;;5098518;28;20432;-75
2021/06/10 13:53:15;;;;;;;2.63;2.43;;;;;;;;;;5079775;28;20459;-75
2021/06/10 13:55:41;;;;;;;2.80;2.60;;;;;;;;;;5080529;28;20534;-74
2021/06/10 13:58:07;;;;;;;3.00;2.30;;;;;;;;;;5080271;28;20438;-75
2021/06/10 14:00:33;;;;;;;3.20;3.00;;;;;;;;;;5079417;28;20432;-74
2021/06/10 14:02:59;;;;;;;2.90;2.60;;;;;;;;;;5082147;28;20438;-74
2021/06/10 14:05:25;;;;;;;3.43;3.00;;;;;;;;;;5078678;28;20429;-76
2021/06/10 14:07:51;;;;;;;3.80;2.60;;;;;;;;;;5078881;28;20470;-75
2021/06/10 14:10:17;;;;;;;3.33;3.13;;;;;;;;;;5082149;28;20448;-74
2021/06/10 14:12:43;;;;;;;3.17;2.73;;;;;;;;;;5069275;28;20534;-75
2021/06/10 14:15:09;;;;;;;2.90;2.70;;;;;;;;;;5079364;28;20456;-74
2021/06/10 14:17:35;;;;;;;2.73;2.53;;;;;;;;;;5088797;28;20444;-74
2021/06/10 14:20:01;;;;;;;3.40;3.03;;;;;;;;;;5079966;28;20574;-75
2021/06/10 14:22:27;;;;;;;2.90;2.67;;;;;;;;;;5080884;28;20790;-75
2021/06/10 14:24:53;;;;;;;2.67;2.47;;;;;;;;;;5081045;28;20917;-74
2021/06/10 14:27:20;;;;;;;3.00;2.80;;;;;;;;;;5081310;28;20442;-74
2021/06/10 14:29:48;;;;;;;3.80;3.60;;;;;;;;;;5084428;28;20414;-74
2021/06/10 14:32:18;;;;;;;3.13;2.80;;;;;;;;;;5080634;28;20523;-74
2021/06/10 14:34:45;;;;;;;3.53;2.50;;;;;;;;;;5081063;28;20467;-75
2021/06/10 14:37:11;;;;;;;5.37;2.67;;;;;;;;;;5079109;28;20468;-75
2021/06/10 14:39:37;;;;;;;2.57;2.37;;;;;;;;;;5081071;28;20438;-75
2021/06/10 14:42:03;;;;;;;2.70;2.50;;;;;;;;;;5083352;28;20421;-75
2021/06/10 14:44:29;;;;;;;2.87;2.60;;;;;;;;;;5081910;28;20447;-75
2021/06/10 14:46:55;;;;;;;3.40;2.60;;;;;;;;;;5079203;28;20489;-74